Time;durP1;ratioP1;P1;durP2;ratioP2;P2;SDS_P1;SDS_P2;PMS_P1;PMS_P2;Temp;Humidity;BMP_temperature;BMP_pressure;BME280_temperature;BME280_humidity;BME280_pressure;Samples;Min_cycle;Max_cycle;Signal;HPM_P1;HPM_P2
2022/08/21 00:02:19;;;;;;;1.87;1.57;;;26.50;94.30;;;;;;5131405;27;20451;-63
2022/08/21 00:04:50;;;;;;;1.93;1.83;;;26.40;95.10;;;;;;5121010;27;20481;-63
2022/08/21 00:07:27;;;;;;;2.17;1.97;;;26.40;96.10;;;;;;5139840;27;20494;-63
2022/08/21 00:09:58;;;;;;;2.47;2.10;;;26.40;95.80;;;;;;5143033;27;20467;-64
2022/08/21 00:12:29;;;;;;;1.90;1.80;;;26.50;95.60;;;;;;5144299;27;20459;-64
2022/08/21 00:15:00;;;;;;;2.20;2.00;;;26.60;95.30;;;;;;5133787;27;20439;-64
2022/08/21 00:17:32;;;;;;;1.90;1.80;;;26.60;95.20;;;;;;5124564;27;20444;-64
2022/08/21 00:20:03;;;;;;;1.87;1.70;;;26.50;95.70;;;;;;5143377;27;20448;-64
2022/08/21 00:22:34;;;;;;;2.40;1.83;;;26.50;95.40;;;;;;5139775;27;20946;-64
2022/08/21 00:25:07;;;;;;;2.30;2.10;;;26.50;96.10;;;;;;5144587;27;20921;-64
2022/08/21 00:27:38;;;;;;;1.70;1.60;;;26.50;95.50;;;;;;5143519;27;20508;-64
2022/08/21 00:30:11;;;;;;;1.83;1.73;;;26.50;95.40;;;;;;5107184;28;20454;-64
2022/08/21 00:32:55;;;;;;;2.37;2.17;;;26.40;96.00;;;;;;5133345;27;20443;-64
2022/08/21 00:35:28;;;;;;;2.43;2.10;;;26.40;95.60;;;;;;5130486;27;20504;-64
2022/08/21 00:38:00;;;;;;;2.10;2.00;;;26.30;96.20;;;;;;5123742;27;20451;-64
2022/08/21 00:40:33;;;;;;;2.50;2.30;;;26.20;96.40;;;;;;5114826;27;20459;-64
2022/08/21 00:43:05;;;;;;;5.57;3.87;;;26.20;97.00;;;;;;5143480;27;20459;-64
2022/08/21 00:45:36;;;;;;;3.83;2.60;;;26.20;96.90;;;;;;5143687;27;20465;-64
2022/08/21 00:48:08;;;;;;;1.97;1.87;;;26.30;97.10;;;;;;5143964;27;20483;-64
2022/08/21 00:50:44;;;;;;;2.13;1.80;;;26.20;96.40;;;;;;5137013;27;20459;-63
2022/08/21 00:53:16;;;;;;;2.00;1.70;;;26.10;96.30;;;;;;5129395;27;20540;-64
2022/08/21 00:55:48;;;;;;;1.73;1.63;;;26.10;96.10;;;;;;5143390;27;20839;-64
2022/08/21 00:58:19;;;;;;;2.57;2.37;;;26.10;96.90;;;;;;5123532;27;20459;-63
2022/08/21 01:00:52;;;;;;;2.20;2.00;;;26.00;97.40;;;;;;5123165;27;20457;-64
2022/08/21 01:03:26;;;;;;;1.97;1.87;;;26.00;96.60;;;;;;5135383;27;20502;-64
2022/08/21 01:05:57;;;;;;;2.47;2.27;;;26.00;96.80;;;;;;5126759;27;20490;-63
2022/08/21 01:08:30;;;;;;;3.50;2.07;;;26.10;96.40;;;;;;5122383;27;20485;-64
2022/08/21 01:11:02;;;;;;;2.47;2.27;;;26.10;96.60;;;;;;5142834;27;20450;-64
2022/08/21 01:13:36;;;;;;;2.30;2.10;;;26.10;96.70;;;;;;5131258;27;20477;-63
2022/08/21 01:16:10;;;;;;;2.37;2.17;;;26.00;97.00;;;;;;5125061;27;20457;-64
2022/08/21 01:18:43;;;;;;;2.40;2.20;;;25.90;97.40;;;;;;5143598;27;20443;-65
2022/08/21 01:21:19;;;;;;;2.10;2.00;;;26.00;97.20;;;;;;5142595;27;20449;-63
2022/08/21 01:23:52;;;;;;;2.07;1.97;;;25.90;97.30;;;;;;5128220;27;20498;-63
2022/08/21 01:26:26;;;;;;;2.07;1.97;;;25.90;98.00;;;;;;5142856;27;20457;-62
2022/08/21 01:29:16;;;;;;;2.30;2.20;;;25.80;98.10;;;;;;5132021;27;20494;-63
2022/08/21 01:31:47;;;;;;;1.67;1.57;;;25.80;97.70;;;;;;5124073;27;20541;-63
2022/08/21 01:34:17;;;;;;;1.60;1.50;;;25.70;98.10;;;;;;5138473;27;20458;-64
2022/08/21 01:36:50;;;;;;;1.93;1.83;;;25.70;98.20;;;;;;5131318;27;20434;-64
2022/08/21 01:39:21;;;;;;;1.80;1.70;;;25.70;98.50;;;;;;5136963;27;20925;-64
2022/08/21 01:41:52;;;;;;;1.50;1.40;;;25.60;98.70;;;;;;5121840;28;20453;-64
2022/08/21 01:44:23;;;;;;;1.70;1.60;;;25.60;98.80;;;;;;5124070;28;20451;-62
2022/08/21 01:46:55;;;;;;;1.93;1.83;;;25.70;98.70;;;;;;5133596;27;20446;-65
2022/08/21 01:49:25;;;;;;;2.10;2.00;;;25.70;98.50;;;;;;5143033;27;20484;-63
2022/08/21 01:51:58;;;;;;;1.80;1.70;;;25.60;98.40;;;;;;5120896;28;20550;-64
2022/08/21 01:54:29;;;;;;;2.10;2.00;;;25.50;99.00;;;;;;5122526;28;20460;-64
2022/08/21 01:57:01;;;;;;;2.23;1.90;;;25.40;99.60;;;;;;5124479;28;20455;-65
2022/08/21 01:59:33;;;;;;;6.33;2.80;;;25.30;99.60;;;;;;5124055;28;20442;-65
2022/08/21 02:02:04;;;;;;;1.90;1.80;;;25.20;99.60;;;;;;5141546;28;20878;-65
2022/08/21 02:04:35;;;;;;;5.20;4.50;;;25.20;99.60;;;;;;5126719;27;20446;-66
2022/08/21 02:07:07;;;;;;;3.63;2.50;;;25.10;99.90;;;;;;5121568;28;20455;-65
2022/08/21 02:09:41;;;;;;;4.00;3.60;;;25.10;99.90;;;;;;5122771;28;20569;-65
2022/08/21 02:12:12;;;;;;;2.27;2.07;;;25.00;99.90;;;;;;5124734;27;20471;-66
2022/08/21 02:14:43;;;;;;;1.90;1.80;;;25.10;99.80;;;;;;5126240;28;20460;-65
2022/08/21 02:17:14;;;;;;;1.87;1.77;;;25.00;99.80;;;;;;5126614;27;20449;-66
2022/08/21 02:19:45;;;;;;;2.10;2.00;;;25.00;99.90;;;;;;5126439;27;20446;-65
2022/08/21 02:22:17;;;;;;;1.90;1.80;;;24.90;99.90;;;;;;5145275;27;20441;-64
2022/08/21 02:24:48;;;;;;;1.90;1.80;;;24.80;99.90;;;;;;5136400;27;20447;-64
2022/08/21 02:27:25;;;;;;;2.17;1.97;;;24.70;99.90;;;;;;5125931;28;20449;-64
2022/08/21 02:29:58;;;;;;;1.97;1.87;;;24.50;99.90;;;;;;5127590;27;21925;-64
2022/08/21 02:32:29;;;;;;;2.27;2.07;;;24.50;99.90;;;;;;5126061;27;20446;-65
2022/08/21 02:34:59;;;;;;;1.57;1.47;;;24.40;99.90;;;;;;5146800;27;20467;-65
2022/08/21 02:37:32;;;;;;;1.47;1.37;;;24.30;99.90;;;;;;5146060;27;20448;-65
2022/08/21 02:40:03;;;;;;;1.93;1.73;;;24.20;99.90;;;;;;5125971;27;20450;-65
2022/08/21 02:42:35;;;;;;;1.67;1.57;;;24.10;99.90;;;;;;5132126;27;20800;-65
2022/08/21 02:45:06;;;;;;;2.07;1.87;;;24.00;99.90;;;;;;5139456;27;20452;-64
2022/08/21 02:47:37;;;;;;;1.80;1.70;;;24.00;99.90;;;;;;5128275;27;20536;-64
2022/08/21 02:50:09;;;;;;;1.67;1.57;;;23.80;99.90;;;;;;5128693;27;20474;-64
2022/08/21 02:52:41;;;;;;;1.70;1.60;;;23.80;99.90;;;;;;5127228;27;20442;-64
2022/08/21 02:55:12;;;;;;;1.80;1.70;;;23.70;99.90;;;;;;5126073;27;20449;-64
2022/08/21 02:57:43;;;;;;;1.70;1.60;;;23.60;99.90;;;;;;5145440;27;20441;-64
2022/08/21 03:00:15;;;;;;;1.80;1.60;;;23.50;99.90;;;;;;5140294;27;20445;-64
2022/08/21 03:02:46;;;;;;;1.70;1.60;;;23.40;99.90;;;;;;5116294;27;20465;-64
2022/08/21 03:05:17;;;;;;;1.60;1.50;;;23.30;99.90;;;;;;5131882;27;20507;-65
2022/08/21 03:07:50;;;;;;;1.73;1.63;;;23.20;99.90;;;;;;5127032;28;20439;-64
2022/08/21 03:10:21;;;;;;;1.60;1.50;;;23.10;99.90;;;;;;5133286;27;20599;-64
2022/08/21 03:12:52;;;;;;;1.50;1.40;;;23.00;99.90;;;;;;5123757;28;20434;-64
2022/08/21 03:15:24;;;;;;;1.70;1.60;;;22.90;99.90;;;;;;5123921;28;20480;-64
2022/08/21 03:17:55;;;;;;;1.80;1.70;;;22.80;99.90;;;;;;5122397;28;20468;-64
2022/08/21 03:20:29;;;;;;;1.70;1.60;;;22.70;99.90;;;;;;5121799;28;20446;-62
2022/08/21 03:23:03;;;;;;;1.63;1.53;;;22.70;99.90;;;;;;5102907;28;20450;-63
2022/08/21 03:25:41;;;;;;;1.37;1.30;;;22.50;99.90;;;;;;5103694;28;20561;-62
2022/08/21 03:28:16;;;;;;;1.70;1.60;;;22.50;99.90;;;;;;5103500;28;20453;-63
2022/08/21 03:30:48;;;;;;;1.60;1.50;;;22.40;99.90;;;;;;5113434;28;20445;-64
2022/08/21 03:33:19;;;;;;;1.80;1.70;;;22.40;99.90;;;;;;5103548;28;20453;-64
2022/08/21 03:36:00;;;;;;;1.90;1.80;;;22.30;99.90;;;;;;5100947;28;20431;-64
2022/08/21 03:38:34;;;;;;;1.47;1.37;;;22.20;99.90;;;;;;5115330;28;20441;-63
2022/08/21 03:41:06;;;;;;;1.60;1.50;;;22.20;99.90;;;;;;5103247;28;20447;-63
2022/08/21 03:43:38;;;;;;;2.00;1.90;;;22.20;99.90;;;;;;5117379;28;20480;-63
2022/08/21 03:46:09;;;;;;;1.63;1.40;;;22.10;99.90;;;;;;5128546;28;20784;-63
2022/08/21 03:48:40;;;;;;;1.60;1.50;;;22.10;99.90;;;;;;5123645;28;20458;-63
2022/08/21 03:51:11;;;;;;;2.07;1.87;;;22.00;99.90;;;;;;5113700;28;20456;-63
2022/08/21 03:53:44;;;;;;;2.00;1.90;;;22.00;99.90;;;;;;5121414;28;20446;-63
2022/08/21 03:56:15;;;;;;;1.83;1.73;;;21.90;99.90;;;;;;5105680;28;20461;-64
2022/08/21 03:58:46;;;;;;;2.33;2.13;;;21.80;99.90;;;;;;5120928;27;20471;-63
2022/08/21 04:01:17;;;;;;;2.27;2.07;;;21.90;99.90;;;;;;5125120;28;20455;-65
2022/08/21 04:03:48;;;;;;;1.50;1.40;;;21.90;99.90;;;;;;5123677;28;20643;-63
2022/08/21 04:06:19;;;;;;;1.67;1.57;;;21.90;99.90;;;;;;5049066;27;2087369;-63
2022/08/21 04:08:51;;;;;;;1.77;1.67;;;21.80;99.90;;;;;;5116177;27;20205;-62
2022/08/21 04:11:22;;;;;;;1.70;1.60;;;21.70;99.90;;;;;;5115891;27;20958;-64
2022/08/21 04:13:53;;;;;;;2.20;2.10;;;21.70;99.90;;;;;;5132606;27;20781;-63
2022/08/21 04:16:24;;;;;;;2.60;2.40;;;21.60;99.90;;;;;;5122573;27;20463;-64
2022/08/21 04:18:54;;;;;;;2.20;2.00;;;21.60;99.90;;;;;;5119182;27;20446;-65
2022/08/21 04:21:25;;;;;;;1.67;1.57;;;21.60;99.90;;;;;;5124908;27;20452;-64
2022/08/21 04:23:58;;;;;;;1.83;1.73;;;21.60;99.90;;;;;;5128300;27;20449;-63
2022/08/21 04:26:30;;;;;;;2.10;2.00;;;21.50;99.90;;;;;;5123743;28;20454;-64
2022/08/21 04:29:01;;;;;;;2.10;1.97;;;21.50;99.90;;;;;;5107198;27;20458;-65
2022/08/21 04:31:33;;;;;;;2.30;2.10;;;21.50;99.90;;;;;;5117308;27;21037;-65
2022/08/21 04:34:04;;;;;;;2.40;2.20;;;21.40;99.90;;;;;;5121968;27;20468;-65
2022/08/21 04:36:36;;;;;;;1.87;1.77;;;21.40;99.90;;;;;;5127694;27;20442;-65
2022/08/21 04:39:09;;;;;;;2.40;2.17;;;21.40;99.90;;;;;;5126892;27;20446;-65
2022/08/21 04:41:41;;;;;;;1.77;1.67;;;21.30;99.90;;;;;;5144607;27;20456;-65
2022/08/21 04:44:12;;;;;;;2.00;1.90;;;21.30;99.90;;;;;;5118608;27;20450;-65
2022/08/21 04:46:43;;;;;;;1.80;1.70;;;21.30;99.90;;;;;;5124252;27;20445;-65
2022/08/21 04:49:14;;;;;;;1.37;1.33;;;21.30;99.90;;;;;;5140553;27;20496;-64
2022/08/21 04:51:48;;;;;;;1.70;1.60;;;21.20;99.90;;;;;;5140222;27;20449;-65
2022/08/21 04:54:24;;;;;;;2.30;2.20;;;21.10;99.90;;;;;;5138374;27;20484;-65
2022/08/21 04:56:57;;;;;;;1.67;1.57;;;21.00;99.90;;;;;;5125275;27;20457;-64
2022/08/21 04:59:32;;;;;;;1.73;1.63;;;20.90;99.90;;;;;;5124354;27;20897;-64
2022/08/21 05:02:04;;;;;;;1.40;1.30;;;20.90;99.90;;;;;;5124724;27;20478;-64
2022/08/21 05:04:38;;;;;;;1.43;1.33;;;20.80;99.90;;;;;;5142202;27;20443;-64
2022/08/21 05:07:13;;;;;;;1.50;1.40;;;20.80;99.90;;;;;;5135221;27;20921;-63
2022/08/21 05:09:46;;;;;;;1.47;1.37;;;20.70;99.90;;;;;;5123873;27;20509;-63
2022/08/21 05:12:17;;;;;;;1.80;1.70;;;20.70;99.90;;;;;;5124663;27;20449;-63
2022/08/21 05:14:48;;;;;;;1.67;1.50;;;20.70;99.90;;;;;;5122438;27;20533;-63
2022/08/21 05:17:19;;;;;;;1.83;1.70;;;20.60;99.90;;;;;;5124483;27;20532;-63
2022/08/21 05:19:49;;;;;;;1.57;1.47;;;20.60;99.90;;;;;;5123562;27;20545;-63
2022/08/21 05:22:24;;;;;;;1.77;1.67;;;20.50;99.90;;;;;;5138060;27;20448;-63
2022/08/21 05:24:56;;;;;;;2.50;1.83;;;20.50;99.90;;;;;;5141571;27;20444;-63
2022/08/21 05:27:29;;;;;;;1.40;1.30;;;20.50;99.90;;;;;;5134661;27;20441;-63
2022/08/21 05:30:01;;;;;;;1.60;1.50;;;20.40;99.90;;;;;;5124285;27;20517;-63
2022/08/21 05:32:31;;;;;;;1.43;1.33;;;20.40;99.90;;;;;;5115913;27;20541;-63
2022/08/21 05:35:02;;;;;;;1.60;1.50;;;20.40;99.90;;;;;;5143087;27;20809;-63
2022/08/21 05:37:34;;;;;;;1.57;1.47;;;20.40;99.90;;;;;;5130894;27;20944;-64
2022/08/21 05:40:08;;;;;;;1.83;1.67;;;20.40;99.90;;;;;;5123436;27;20807;-63
2022/08/21 05:42:52;;;;;;;1.87;1.63;;;20.30;99.90;;;;;;5118447;27;20448;-63
2022/08/21 05:45:25;;;;;;;1.70;1.50;;;20.30;99.90;;;;;;5122685;28;20517;-63
2022/08/21 05:48:15;;;;;;;1.50;1.40;;;20.20;99.90;;;;;;5127165;27;20420;-63
2022/08/21 05:50:47;;;;;;;2.87;1.63;;;20.20;99.90;;;;;;5142334;27;20491;-63
2022/08/21 05:53:19;;;;;;;1.87;1.40;;;20.10;99.90;;;;;;5139681;27;20472;-63
2022/08/21 05:55:53;;;;;;;1.57;1.47;;;20.10;99.90;;;;;;5122064;28;20522;-64
2022/08/21 05:58:24;;;;;;;1.40;1.30;;;20.10;99.90;;;;;;5106785;28;20435;-63
2022/08/21 06:00:54;;;;;;;1.80;1.70;;;20.00;99.90;;;;;;5121363;28;20420;-63
2022/08/21 06:03:27;;;;;;;1.30;1.20;;;20.00;99.90;;;;;;5121565;28;20435;-63
2022/08/21 06:05:58;;;;;;;1.60;1.50;;;20.00;99.90;;;;;;5121703;28;20477;-63
2022/08/21 06:08:30;;;;;;;1.33;1.23;;;19.90;99.90;;;;;;5123978;28;20454;-63
2022/08/21 06:11:04;;;;;;;1.53;1.43;;;19.90;99.90;;;;;;5130573;28;20533;-63
2022/08/21 06:13:35;;;;;;;1.50;1.40;;;19.80;99.90;;;;;;5134016;28;20586;-64
2022/08/21 06:16:08;;;;;;;1.37;1.27;;;19.70;99.90;;;;;;5116983;28;20998;-63
2022/08/21 06:18:40;;;;;;;1.83;1.73;;;19.70;99.90;;;;;;5133296;27;20554;-63
2022/08/21 06:21:11;;;;;;;1.07;0.97;;;19.60;99.90;;;;;;5125507;28;20444;-63
2022/08/21 06:23:42;;;;;;;1.40;1.30;;;19.60;99.90;;;;;;5123488;28;20561;-63
2022/08/21 06:26:15;;;;;;;1.83;1.73;;;19.60;99.90;;;;;;5122253;28;20529;-63
2022/08/21 06:28:46;;;;;;;3.53;1.37;;;19.50;99.90;;;;;;5122835;28;20461;-63
2022/08/21 06:31:20;;;;;;;1.80;1.70;;;19.50;99.90;;;;;;5131785;28;20480;-63
2022/08/21 06:33:51;;;;;;;1.53;1.43;;;19.50;99.90;;;;;;5127912;27;20458;-63
2022/08/21 06:36:22;;;;;;;1.67;1.57;;;19.50;99.90;;;;;;5122556;28;20454;-63
2022/08/21 06:38:53;;;;;;;1.67;1.50;;;19.40;99.90;;;;;;5127736;27;20427;-63
2022/08/21 06:41:28;;;;;;;1.50;1.40;;;19.30;99.90;;;;;;5122697;28;20450;-63
2022/08/21 06:44:07;;;;;;;1.93;1.83;;;19.30;99.90;;;;;;5122903;28;20469;-63
2022/08/21 06:46:38;;;;;;;2.60;1.43;;;19.30;99.90;;;;;;5121536;28;20424;-63
2022/08/21 06:49:09;;;;;;;1.93;1.60;;;19.20;99.90;;;;;;5122258;28;20445;-63
2022/08/21 06:51:50;;;;;;;1.80;1.70;;;19.20;99.90;;;;;;5121229;28;20460;-63
2022/08/21 06:54:21;;;;;;;1.93;1.83;;;19.10;99.90;;;;;;5141570;27;20491;-63
2022/08/21 06:56:53;;;;;;;1.90;1.80;;;19.20;99.90;;;;;;5144390;27;20937;-63
2022/08/21 06:59:24;;;;;;;2.50;2.30;;;19.20;99.90;;;;;;5139590;27;20747;-63
2022/08/21 07:01:54;;;;;;;1.77;1.67;;;19.10;99.90;;;;;;5136292;27;20423;-63
2022/08/21 07:04:25;;;;;;;1.70;1.60;;;19.00;99.90;;;;;;5146147;27;20460;-63
2022/08/21 07:06:56;;;;;;;2.43;2.23;;;19.00;99.90;;;;;;5125857;27;20552;-63
2022/08/21 07:09:27;;;;;;;2.50;2.13;;;19.00;99.90;;;;;;5135467;27;20467;-63
2022/08/21 07:11:59;;;;;;;2.30;2.10;;;18.90;99.90;;;;;;5134984;27;20473;-64
2022/08/21 07:14:30;;;;;;;2.20;2.00;;;18.90;99.90;;;;;;5127984;27;20413;-63
2022/08/21 07:17:02;;;;;;;1.77;1.67;;;18.80;99.90;;;;;;5126261;27;20659;-63
2022/08/21 07:19:32;;;;;;;2.00;1.80;;;18.80;99.90;;;;;;5125682;28;20487;-63
2022/08/21 07:22:04;;;;;;;2.20;2.00;;;18.80;99.90;;;;;;5124439;27;20454;-63
2022/08/21 07:24:35;;;;;;;1.83;1.73;;;18.70;99.90;;;;;;5127971;27;20467;-63
2022/08/21 07:27:07;;;;;;;1.63;1.53;;;18.70;99.90;;;;;;5108459;28;20450;-63
2022/08/21 07:29:39;;;;;;;1.70;1.60;;;18.60;99.90;;;;;;5125923;27;20461;-63
2022/08/21 07:32:10;;;;;;;2.03;1.93;;;18.60;99.90;;;;;;5136884;27;20477;-63
2022/08/21 07:34:42;;;;;;;1.53;1.43;;;18.60;99.90;;;;;;5145801;27;20982;-63
2022/08/21 07:37:12;;;;;;;1.50;1.40;;;18.60;99.90;;;;;;5114372;27;20842;-63
2022/08/21 07:39:48;;;;;;;2.43;1.70;;;18.60;99.90;;;;;;5128361;27;20435;-63
2022/08/21 07:42:20;;;;;;;1.93;1.80;;;18.50;99.90;;;;;;5125183;27;20483;-63
2022/08/21 07:44:54;;;;;;;1.20;1.10;;;18.50;99.90;;;;;;5143730;27;20440;-63
2022/08/21 07:47:25;;;;;;;1.97;1.50;;;18.50;99.90;;;;;;5145018;27;20512;-63
2022/08/21 07:50:12;;;;;;;1.50;1.23;;;18.50;99.90;;;;;;5140672;27;20438;-62
2022/08/21 07:52:43;;;;;;;1.50;1.40;;;18.30;99.90;;;;;;5132270;27;20496;-63
2022/08/21 07:55:16;;;;;;;1.50;1.40;;;18.40;99.90;;;;;;5145168;27;20455;-63
2022/08/21 07:57:49;;;;;;;1.87;1.77;;;18.30;99.90;;;;;;5112566;27;20445;-63
2022/08/21 08:00:24;;;;;;;1.67;1.57;;;18.30;99.90;;;;;;5136647;27;20446;-63
2022/08/21 08:02:55;;;;;;;1.70;1.60;;;18.30;99.90;;;;;;5127496;27;20424;-63
2022/08/21 08:05:29;;;;;;;1.50;1.40;;;18.30;99.90;;;;;;5124804;27;20474;-63
2022/08/21 08:08:00;;;;;;;1.70;1.60;;;18.30;99.90;;;;;;5138334;27;20449;-63
2022/08/21 08:10:31;;;;;;;1.60;1.50;;;18.30;99.90;;;;;;5124686;27;20451;-63
2022/08/21 08:13:03;;;;;;;1.90;1.70;;;18.20;99.90;;;;;;5139473;27;20472;-64
2022/08/21 08:15:39;;;;;;;1.80;1.70;;;18.20;99.90;;;;;;5128669;27;20634;-63
2022/08/21 08:18:11;;;;;;;1.50;1.40;;;18.30;99.90;;;;;;5144550;27;20908;-63
2022/08/21 08:20:42;;;;;;;1.60;1.50;;;18.20;99.90;;;;;;5130148;27;20440;-63
2022/08/21 08:23:13;;;;;;;1.47;1.37;;;18.20;99.90;;;;;;5124165;27;20461;-63
2022/08/21 08:25:44;;;;;;;2.63;1.70;;;18.20;99.90;;;;;;5127492;27;20457;-63
2022/08/21 08:28:17;;;;;;;1.83;1.53;;;18.10;99.90;;;;;;5123781;28;20797;-63
2022/08/21 08:30:49;;;;;;;1.30;1.20;;;18.20;99.90;;;;;;5138148;27;20871;-63
2022/08/21 08:33:19;;;;;;;2.23;1.70;;;18.10;99.90;;;;;;5141644;27;21118;-63
2022/08/21 08:35:52;;;;;;;1.70;1.60;;;18.00;99.90;;;;;;5123378;27;20424;-63
2022/08/21 08:38:25;;;;;;;1.90;1.80;;;18.00;99.90;;;;;;5123789;27;20539;-63
2022/08/21 08:41:07;;;;;;;1.43;1.33;;;17.90;99.90;;;;;;5119914;27;20451;-63
2022/08/21 08:43:40;;;;;;;2.03;1.93;;;17.90;99.90;;;;;;5123981;28;20781;-63
2022/08/21 08:46:16;;;;;;;2.20;2.00;;;17.90;99.90;;;;;;5123938;27;20476;-63
2022/08/21 08:48:56;;;;;;;2.00;1.47;;;17.90;99.90;;;;;;5138651;27;20452;-63
2022/08/21 08:51:40;;;;;;;1.70;1.60;;;17.90;99.90;;;;;;5123192;27;20500;-63
2022/08/21 08:54:14;;;;;;;1.80;1.70;;;17.90;99.90;;;;;;5123968;28;20441;-63
2022/08/21 08:56:46;;;;;;;1.70;1.60;;;17.90;99.90;;;;;;5137422;27;20427;-63
2022/08/21 08:59:22;;;;;;;2.00;1.83;;;17.80;99.90;;;;;;5143013;27;20439;-63
2022/08/21 09:01:54;;;;;;;2.17;2.03;;;17.80;99.90;;;;;;5136524;27;20438;-63
2022/08/21 09:04:28;;;;;;;1.87;1.70;;;17.70;99.90;;;;;;5134608;27;20412;-63
2022/08/21 09:07:11;;;;;;;1.77;1.67;;;17.70;99.90;;;;;;5142543;27;20933;-63
2022/08/21 09:09:57;;;;;;;1.90;1.80;;;17.70;99.90;;;;;;5139568;27;20464;-63
2022/08/21 09:12:38;;;;;;;1.90;1.80;;;17.70;99.90;;;;;;5136086;27;20519;-63
2022/08/21 09:15:21;;;;;;;1.80;1.70;;;17.70;99.90;;;;;;5128031;27;20432;-63
2022/08/21 09:18:06;;;;;;;2.43;2.03;;;17.60;99.90;;;;;;5142958;27;20441;-63
2022/08/21 09:20:42;;;;;;;1.97;1.87;;;17.50;99.90;;;;;;5143830;27;20434;-63
2022/08/21 09:23:24;;;;;;;1.97;1.70;;;17.50;99.90;;;;;;5142946;27;20447;-63
2022/08/21 09:26:04;;;;;;;1.67;1.57;;;17.50;99.90;;;;;;5140561;27;20769;-63
2022/08/21 09:28:36;;;;;;;1.80;1.70;;;17.50;99.90;;;;;;5123247;28;20453;-62
2022/08/21 09:31:18;;;;;;;1.50;1.40;;;17.40;99.90;;;;;;5123112;28;20461;-63
2022/08/21 09:33:48;;;;;;;3.47;2.20;;;17.40;99.90;;;;;;5123092;28;20497;-63
2022/08/21 09:36:30;;;;;;;1.83;1.70;;;17.40;99.90;;;;;;5122167;28;20440;-63
2022/08/21 09:39:01;;;;;;;2.47;1.80;;;17.40;99.90;;;;;;5122876;28;20432;-63
2022/08/21 09:41:35;;;;;;;1.47;1.37;;;17.40;99.90;;;;;;5129368;27;20447;-63
2022/08/21 09:44:07;;;;;;;1.93;1.83;;;17.30;99.90;;;;;;5131858;27;20420;-63
2022/08/21 09:46:40;;;;;;;2.67;2.47;;;17.30;99.90;;;;;;5142682;27;20423;-63
2022/08/21 09:49:10;;;;;;;1.40;1.30;;;17.30;99.90;;;;;;5142576;27;20456;-62
2022/08/21 09:51:54;;;;;;;1.90;1.80;;;17.20;99.90;;;;;;5106794;28;20445;-63
2022/08/21 09:54:30;;;;;;;2.30;1.80;;;17.20;99.90;;;;;;5123074;28;20457;-63
2022/08/21 10:00:11;;;;;;;2.40;2.17;;;17.30;99.90;;;;;;5110825;28;20791;-63
2022/08/21 10:02:43;;;;;;;2.40;2.20;;;17.20;99.90;;;;;;5123840;28;20449;-63
2022/08/21 10:05:22;;;;;;;2.33;1.97;;;17.20;99.90;;;;;;5123411;28;20492;-63
2022/08/21 10:07:53;;;;;;;1.80;1.70;;;17.20;99.90;;;;;;5127174;28;20423;-63
2022/08/21 10:10:30;;;;;;;2.37;2.03;;;17.20;99.90;;;;;;5132978;27;20454;-63
2022/08/21 10:13:07;;;;;;;1.93;1.73;;;17.20;99.90;;;;;;5126306;28;20456;-63
2022/08/21 10:15:58;;;;;;;2.50;1.87;;;17.20;99.90;;;;;;5119396;28;20412;-63
2022/08/21 10:18:41;;;;;;;2.63;2.43;;;17.20;99.90;;;;;;5122057;28;20457;-63
2022/08/21 10:21:19;;;;;;;2.20;2.00;;;17.10;99.90;;;;;;5138416;27;20433;-63
2022/08/21 10:24:00;;;;;;;2.33;2.13;;;17.10;99.90;;;;;;5143741;27;20448;-62
2022/08/21 10:26:45;;;;;;;2.80;2.40;;;17.10;99.90;;;;;;5132463;27;20876;-63
2022/08/21 10:29:27;;;;;;;2.30;2.10;;;17.10;99.90;;;;;;5141640;27;20982;-63
2022/08/21 10:32:07;;;;;;;2.23;1.97;;;17.10;99.90;;;;;;5125652;28;20540;-63
2022/08/21 10:35:04;;;;;;;2.83;2.20;;;17.10;99.90;;;;;;5141339;27;20451;-62
2022/08/21 10:37:53;;;;;;;2.10;2.00;;;17.00;99.90;;;;;;5108711;28;20495;-63
2022/08/21 10:40:30;;;;;;;3.10;2.23;;;17.00;99.90;;;;;;5138294;27;20449;-63
2022/08/21 10:43:15;;;;;;;2.40;2.20;;;17.00;99.90;;;;;;5130597;27;20456;-63
2022/08/21 10:45:59;;;;;;;1.97;1.87;;;17.00;99.90;;;;;;5111593;27;20468;-63
2022/08/21 10:48:37;;;;;;;2.07;1.87;;;17.00;99.90;;;;;;5126279;28;20881;-63
2022/08/21 10:51:17;;;;;;;2.10;1.90;;;17.00;99.90;;;;;;5136495;27;20542;-63
2022/08/21 10:54:05;;;;;;;2.83;2.47;;;17.00;99.90;;;;;;5133865;27;20846;-62
2022/08/21 10:56:40;;;;;;;1.97;1.83;;;16.90;99.90;;;;;;5105878;28;20446;-63
2022/08/21 10:59:27;;;;;;;2.60;2.27;;;16.90;99.90;;;;;;5125552;27;20899;-62
2022/08/21 11:02:02;;;;;;;2.07;1.93;;;16.90;99.90;;;;;;5146269;27;20419;-63
2022/08/21 11:04:40;;;;;;;2.40;1.67;;;16.90;99.90;;;;;;5146376;27;20437;-63
2022/08/21 11:07:27;;;;;;;2.10;2.00;;;16.80;99.90;;;;;;5143168;27;20497;-63
2022/08/21 11:10:09;;;;;;;1.77;1.67;;;16.80;99.90;;;;;;5133840;27;20444;-63
2022/08/21 11:12:44;;;;;;;2.27;2.07;;;16.70;99.90;;;;;;5138905;27;21001;-63
2022/08/21 11:15:30;;;;;;;2.00;1.90;;;16.70;99.90;;;;;;5128371;27;20468;-63
2022/08/21 11:18:15;;;;;;;2.30;2.10;;;16.70;99.90;;;;;;5126038;27;20456;-62
2022/08/21 11:20:53;;;;;;;3.67;2.23;;;16.70;99.90;;;;;;5125455;28;20446;-63
2022/08/21 11:23:31;;;;;;;2.67;2.47;;;16.60;99.90;;;;;;5145214;27;20468;-62
2022/08/21 11:26:07;;;;;;;2.67;2.47;;;16.60;99.90;;;;;;5145485;27;20452;-63
2022/08/21 11:28:45;;;;;;;2.67;2.10;;;16.60;99.90;;;;;;5145857;27;20462;-62
2022/08/21 11:31:27;;;;;;;2.40;2.20;;;16.60;99.90;;;;;;5144025;27;20584;-63
2022/08/21 11:34:16;;;;;;;2.70;2.10;;;16.50;99.90;;;;;;5145687;27;20480;-63
2022/08/21 11:36:52;;;;;;;2.53;2.20;;;16.50;99.90;;;;;;5130677;27;20446;-63
2022/08/21 11:39:32;;;;;;;2.37;2.17;;;16.50;99.90;;;;;;5125581;27;20424;-63
2022/08/21 11:42:14;;;;;;;1.93;1.80;;;16.50;99.90;;;;;;5143228;27;20449;-63
2022/08/21 11:44:57;;;;;;;2.33;2.10;;;16.40;99.90;;;;;;5132498;27;21014;-63
2022/08/21 11:47:41;;;;;;;2.13;2.03;;;16.40;99.90;;;;;;5125355;27;20565;-63
2022/08/21 11:50:17;;;;;;;2.50;2.10;;;16.40;99.90;;;;;;5134673;27;20452;-62
2022/08/21 11:53:10;;;;;;;2.60;2.40;;;16.40;99.90;;;;;;5135628;27;20478;-63
2022/08/21 11:55:48;;;;;;;4.43;2.70;;;16.40;99.90;;;;;;5123918;27;20427;-63
2022/08/21 11:58:25;;;;;;;2.50;2.13;;;16.30;99.90;;;;;;5145835;27;20484;-64
2022/08/21 12:00:59;;;;;;;3.50;2.57;;;16.30;99.90;;;;;;5138910;27;20447;-62
2022/08/21 12:03:34;;;;;;;2.37;2.10;;;16.30;99.90;;;;;;5126435;27;20469;-62
2022/08/21 12:06:08;;;;;;;2.30;2.10;;;16.30;99.90;;;;;;5124100;28;20472;-63
2022/08/21 12:08:40;;;;;;;2.80;2.20;;;16.30;99.90;;;;;;5109208;28;20449;-63
2022/08/21 12:11:25;;;;;;;3.80;2.60;;;16.20;99.90;;;;;;5139833;27;20456;-63
2022/08/21 12:14:12;;;;;;;3.37;2.27;;;16.20;99.90;;;;;;5129790;27;20485;-63
2022/08/21 12:16:45;;;;;;;2.20;2.00;;;16.20;99.90;;;;;;5124610;27;20434;-63
2022/08/21 12:19:31;;;;;;;2.40;2.20;;;16.30;99.90;;;;;;5133418;27;20418;-62
2022/08/21 12:22:11;;;;;;;2.70;2.40;;;16.30;99.90;;;;;;5144553;27;20437;-63
2022/08/21 12:24:45;;;;;;;2.50;2.30;;;16.40;99.90;;;;;;5115119;27;20456;-62
2022/08/21 12:27:25;;;;;;;2.70;2.50;;;16.40;99.90;;;;;;5144601;27;20480;-63
2022/08/21 12:30:00;;;;;;;2.50;2.00;;;16.40;99.90;;;;;;5144278;27;20444;-62
2022/08/21 12:32:32;;;;;;;2.27;2.07;;;16.40;99.90;;;;;;5141817;27;20464;-63
2022/08/21 12:35:10;;;;;;;3.70;2.80;;;16.50;99.90;;;;;;5124535;27;20482;-63
2022/08/21 12:38:00;;;;;;;3.83;2.20;;;16.50;99.90;;;;;;5123180;27;20435;-63
2022/08/21 12:40:45;;;;;;;2.33;1.90;;;16.50;99.90;;;;;;5139592;27;20471;-62
2022/08/21 12:43:21;;;;;;;2.67;2.47;;;16.60;99.90;;;;;;5144464;27;20460;-62
2022/08/21 12:45:52;;;;;;;2.60;2.40;;;16.60;99.90;;;;;;5144201;27;20431;-62
2022/08/21 12:48:27;;;;;;;2.83;2.33;;;16.50;99.90;;;;;;5144342;27;20530;-62
2022/08/21 12:51:07;;;;;;;2.87;2.37;;;16.50;99.90;;;;;;5106968;27;20457;-63
2022/08/21 12:53:43;;;;;;;3.53;2.27;;;16.40;99.90;;;;;;5123944;27;20484;-63
2022/08/21 12:56:16;;;;;;;2.47;2.17;;;16.50;99.90;;;;;;5143767;27;20429;-63
2022/08/21 12:58:51;;;;;;;2.20;1.90;;;16.40;99.90;;;;;;5142530;27;20445;-62
2022/08/21 13:01:25;;;;;;;1.77;1.67;;;16.40;99.90;;;;;;5122655;27;20460;-62
2022/08/21 13:03:59;;;;;;;2.73;2.33;;;16.40;99.90;;;;;;5123965;28;20453;-62
2022/08/21 13:06:39;;;;;;;2.30;2.10;;;16.30;99.90;;;;;;5106298;27;20484;-62
2022/08/21 13:09:15;;;;;;;2.30;2.10;;;16.30;99.90;;;;;;5123845;27;20427;-62
2022/08/21 13:11:48;;;;;;;2.30;2.10;;;16.30;99.90;;;;;;5136920;27;20444;-63
2022/08/21 13:14:29;;;;;;;2.80;2.40;;;16.20;99.90;;;;;;5125393;27;20516;-62
2022/08/21 13:17:02;;;;;;;2.70;2.10;;;16.20;99.90;;;;;;5123703;27;20457;-61
2022/08/21 13:19:33;;;;;;;3.53;2.40;;;16.20;99.90;;;;;;5123600;28;20453;-61
2022/08/21 13:22:05;;;;;;;2.90;2.07;;;16.30;99.90;;;;;;5137426;27;20951;-61
2022/08/21 13:24:56;;;;;;;2.40;2.20;;;16.30;99.90;;;;;;5139056;27;20442;-61
2022/08/21 13:27:31;;;;;;;2.10;1.87;;;16.30;99.90;;;;;;5133239;27;21006;-61
2022/08/21 13:30:13;;;;;;;3.03;2.40;;;16.30;99.90;;;;;;5129541;27;20457;-61